Time;durP1;ratioP1;P1;durP2;ratioP2;P2;SDS_P1;SDS_P2;PMS_P1;PMS_P2;Temp;Humidity;BMP_temperature;BMP_pressure;BME280_temperature;BME280_humidity;BME280_pressure;Samples;Min_cycle;Max_cycle;Signal;HPM_P1;HPM_P2
2022/08/16 00:00:42;;;;;;;;;;;20.70;99.90;;;;;;6245236;23;19958;-74
2022/08/16 00:03:09;;;;;;;;;;;20.70;99.90;;;;;;6247458;22;19919;-76
2022/08/16 00:05:35;;;;;;;;;;;20.70;99.90;;;;;;6246923;23;19998;-75
2022/08/16 00:08:00;;;;;;;;;;;20.70;99.90;;;;;;6221318;23;19974;-75
2022/08/16 00:10:27;;;;;;;;;;;20.70;99.90;;;;;;6246521;23;19919;-74
2022/08/16 00:12:53;;;;;;;;;;;20.70;99.90;;;;;;6247229;22;19997;-74
2022/08/16 00:15:23;;;;;;;;;;;20.60;99.90;;;;;;6221728;23;19920;-75
2022/08/16 00:17:49;;;;;;;;;;;20.70;99.90;;;;;;6246740;23;19924;-76
2022/08/16 00:20:15;;;;;;;;;;;20.70;99.90;;;;;;6221436;23;19920;-76
2022/08/16 00:22:41;;;;;;;;;;;20.60;99.90;;;;;;6248520;22;20246;-77
2022/08/16 00:25:08;;;;;;;;;;;20.60;99.90;;;;;;6221816;23;19923;-75
2022/08/16 00:27:34;;;;;;;;;;;20.60;99.90;;;;;;6247187;23;19971;-74
2022/08/16 00:30:00;;;;;;;;;;;20.60;99.90;;;;;;6221642;23;19919;-74
2022/08/16 00:32:26;;;;;;;;;;;20.60;99.90;;;;;;6247032;22;19920;-74
2022/08/16 00:34:51;;;;;;;;;;;20.70;99.90;;;;;;6247150;23;20231;-73
2022/08/16 00:37:17;;;;;;;;;;;20.70;99.90;;;;;;6246546;23;19924;-73
2022/08/16 00:39:43;;;;;;;;;;;20.60;99.90;;;;;;6246494;23;19920;-74
2022/08/16 00:42:09;;;;;;;;;;;20.70;99.90;;;;;;6244708;22;19970;-74
2022/08/16 00:44:35;;;;;;;;;;;20.70;99.90;;;;;;6244814;23;19920;-76
2022/08/16 00:47:07;;;;;;;;;;;20.80;99.90;;;;;;6248519;22;20243;-74
2022/08/16 00:49:33;;;;;;;;;;;20.70;99.90;;;;;;6221799;23;19919;-75
2022/08/16 00:51:59;;;;;;;;;;;20.80;99.90;;;;;;6221218;23;19919;-74
2022/08/16 00:54:28;;;;;;;;;;;20.80;99.90;;;;;;6221329;23;19919;-74
2022/08/16 00:56:54;;;;;;;;;;;20.80;99.90;;;;;;6221513;23;19920;-75
2022/08/16 00:59:21;;;;;;;;;;;20.70;99.90;;;;;;6248341;22;20246;-74
2022/08/16 01:01:46;;;;;;;;;;;20.70;99.90;;;;;;6246506;23;19920;-76
2022/08/16 01:04:13;;;;;;;;;;;20.80;99.90;;;;;;6221307;23;19927;-75
2022/08/16 01:06:39;;;;;;;;;;;20.80;99.90;;;;;;6248260;22;19939;-75
2022/08/16 01:09:05;;;;;;;;;;;20.80;99.90;;;;;;6246659;23;19955;-77
2022/08/16 01:11:32;;;;;;;;;;;20.80;99.90;;;;;;6244678;23;19991;-77
2022/08/16 01:14:01;;;;;;;;;;;20.80;99.90;;;;;;6219538;23;19930;-73
2022/08/16 01:16:27;;;;;;;;;;;20.80;99.90;;;;;;6246545;23;20445;-75
2022/08/16 01:18:57;;;;;;;;;;;20.80;99.90;;;;;;6246463;23;19924;-75
2022/08/16 01:21:42;;;;;;;;;;;20.70;99.90;;;;;;6246109;23;20318;-75
2022/08/16 01:24:12;;;;;;;;;;;20.70;99.90;;;;;;6246678;22;19965;-76
2022/08/16 01:26:38;;;;;;;;;;;20.70;99.90;;;;;;6221443;23;19923;-75
2022/08/16 01:29:07;;;;;;;;;;;20.60;99.90;;;;;;6221752;23;19986;-75
2022/08/16 01:31:32;;;;;;;;;;;20.60;99.90;;;;;;6220989;23;19924;-74
2022/08/16 01:33:58;;;;;;;;;;;20.60;99.90;;;;;;6246423;22;19926;-76
2022/08/16 01:36:28;;;;;;;;;;;20.50;99.90;;;;;;6246423;23;19954;-74
2022/08/16 01:38:54;;;;;;;;;;;20.50;99.90;;;;;;6246146;23;19926;-75
2022/08/16 01:41:21;;;;;;;;;;;20.50;99.90;;;;;;6246005;23;19920;-75
2022/08/16 01:43:47;;;;;;;;;;;20.40;99.90;;;;;;6220115;23;19930;-76
2022/08/16 01:46:22;;;;;;;;;;;20.40;99.90;;;;;;6221131;23;20237;-75
2022/08/16 01:48:52;;;;;;;;;;;20.40;99.90;;;;;;6245990;23;19920;-77
2022/08/16 01:51:19;;;;;;;;;;;20.40;99.90;;;;;;6247978;22;19978;-74
2022/08/16 01:53:45;;;;;;;;;;;20.40;99.90;;;;;;6246260;22;19970;-74
2022/08/16 01:56:10;;;;;;;;;;;20.40;99.90;;;;;;6220700;23;19920;-74
2022/08/16 01:58:36;;;;;;;;;;;20.30;99.90;;;;;;6246264;23;19934;-75
2022/08/16 02:01:02;;;;;;;;;;;20.30;99.90;;;;;;6246077;23;19926;-74
2022/08/16 02:03:27;;;;;;;;;;;20.20;99.90;;;;;;6246483;22;19966;-75
2022/08/16 02:05:53;;;;;;;;;;;20.20;99.90;;;;;;6246112;23;19969;-75
2022/08/16 02:08:19;;;;;;;;;;;20.20;99.90;;;;;;6220346;23;20253;-75
2022/08/16 02:10:44;;;;;;;;;;;20.20;99.90;;;;;;6195628;23;19924;-75
2022/08/16 02:13:10;;;;;;;;;;;20.10;99.90;;;;;;6246057;22;20015;-76
2022/08/16 02:15:36;;;;;;;;;;;20.00;99.90;;;;;;6245668;23;20393;-74
2022/08/16 02:18:05;;;;;;;;;;;20.10;99.90;;;;;;6245815;23;19919;-74
2022/08/16 02:20:31;;;;;;;;;;;20.00;99.90;;;;;;6195840;23;19920;-75
2022/08/16 02:22:58;;;;;;;;;;;19.90;99.90;;;;;;6247035;22;19959;-77
2022/08/16 02:25:24;;;;;;;;;;;19.90;99.90;;;;;;6220774;23;20250;-77
2022/08/16 02:27:50;;;;;;;;;;;19.90;99.90;;;;;;6245357;23;19920;-75
2022/08/16 02:30:18;;;;;;;;;;;19.80;99.90;;;;;;6220719;23;19942;-77
2022/08/16 02:32:44;;;;;;;;;;;19.80;99.90;;;;;;6245878;22;19919;-75
2022/08/16 02:35:10;;;;;;;;;;;19.80;99.90;;;;;;6245003;23;19924;-75
2022/08/16 02:37:35;;;;;;;;;;;19.80;99.90;;;;;;6245525;23;19927;-74
2022/08/16 02:40:01;;;;;;;;;;;19.70;99.90;;;;;;6246280;22;19919;-77
2022/08/16 02:42:27;;;;;;;;;;;19.70;99.90;;;;;;6245761;22;19926;-74
2022/08/16 02:44:52;;;;;;;;;;;19.70;99.90;;;;;;6219568;23;20003;-74
2022/08/16 02:47:18;;;;;;;;;;;19.70;99.90;;;;;;6245626;23;19922;-75
2022/08/16 02:49:44;;;;;;;;;;;19.70;99.90;;;;;;6245687;23;19920;-75
2022/08/16 02:52:10;;;;;;;;;;;19.70;99.90;;;;;;6247108;23;19959;-74
2022/08/16 02:54:39;;;;;;;;;;;19.60;99.90;;;;;;6245302;22;19985;-76
2022/08/16 02:57:04;;;;;;;;;;;19.50;99.90;;;;;;6245677;23;19927;-74
2022/08/16 02:59:30;;;;;;;;;;;19.50;99.90;;;;;;6245617;23;20314;-74
2022/08/16 03:01:55;;;;;;;;;;;19.50;99.90;;;;;;6245529;23;19969;-74
2022/08/16 03:04:22;;;;;;;;;;;19.40;99.90;;;;;;6245484;22;19920;-75
2022/08/16 03:06:47;;;;;;;;;;;19.30;99.90;;;;;;6220371;23;19930;-74
2022/08/16 03:09:13;;;;;;;;;;;19.30;99.90;;;;;;6245591;23;20301;-74
2022/08/16 03:11:38;;;;;;;;;;;19.20;99.90;;;;;;6219879;23;20351;-74
2022/08/16 03:14:05;;;;;;;;;;;19.20;99.90;;;;;;6245393;22;19919;-75
2022/08/16 03:16:30;;;;;;;;;;;19.10;99.90;;;;;;6220380;23;20006;-75
2022/08/16 03:18:56;;;;;;;;;;;19.00;99.90;;;;;;6245285;23;20326;-74
2022/08/16 03:21:22;;;;;;;;;;;19.00;99.90;;;;;;6220084;23;19951;-74
2022/08/16 03:23:47;;;;;;;;;;;19.00;99.90;;;;;;6244840;22;20247;-76
2022/08/16 03:26:13;;;;;;;;;;;19.00;99.90;;;;;;6243904;23;19919;-74
2022/08/16 03:28:40;;;;;;;;;;;19.00;99.90;;;;;;6219654;23;20397;-74
2022/08/16 03:31:06;;;;;;;;;;;18.90;99.90;;;;;;6195287;23;19927;-75
2022/08/16 03:33:32;;;;;;;;;;;18.90;99.90;;;;;;6245272;22;19920;-74
2022/08/16 03:35:58;;;;;;;;;;;18.80;99.90;;;;;;6244694;23;19966;-76
2022/08/16 03:38:25;;;;;;;;;;;18.80;99.90;;;;;;6219915;23;19990;-75
2022/08/16 03:40:51;;;;;;;;;;;18.80;99.90;;;;;;6219062;23;20324;-74
2022/08/16 03:43:17;;;;;;;;;;;18.80;99.90;;;;;;6219783;23;19923;-76
2022/08/16 03:45:43;;;;;;;;;;;18.80;99.90;;;;;;6243128;23;20326;-76
2022/08/16 03:48:08;;;;;;;;;;;18.80;99.90;;;;;;6244475;23;19986;-74
2022/08/16 03:50:34;;;;;;;;;;;18.70;99.90;;;;;;6245705;23;19973;-75
2022/08/16 03:53:00;;;;;;;;;;;18.60;99.90;;;;;;6219630;23;19926;-74
2022/08/16 03:55:26;;;;;;;;;;;18.70;99.90;;;;;;6246593;23;20326;-74
2022/08/16 03:57:52;;;;;;;;;;;18.60;99.90;;;;;;6220258;23;20005;-74
2022/08/16 04:00:20;;;;;;;;;;;18.50;99.90;;;;;;6245230;23;19941;-74
2022/08/16 04:02:46;;;;;;;;;;;18.40;99.90;;;;;;6244808;22;19920;-75
2022/08/16 04:05:13;;;;;;;;;;;18.40;99.90;;;;;;6245327;23;19920;-75
2022/08/16 04:07:38;;;;;;;;;;;18.40;99.90;;;;;;6218464;23;19951;-77
2022/08/16 04:10:05;;;;;;;;;;;18.40;99.90;;;;;;6246698;22;19927;-75
2022/08/16 04:12:30;;;;;;;;;;;18.40;99.90;;;;;;6245043;22;20277;-74
2022/08/16 04:14:56;;;;;;;;;;;18.50;99.90;;;;;;6245218;23;19934;-73
2022/08/16 04:17:21;;;;;;;;;;;18.40;99.90;;;;;;6219563;23;19920;-73
2022/08/16 04:19:47;;;;;;;;;;;18.40;99.90;;;;;;6220007;23;20044;-75
2022/08/16 04:22:13;;;;;;;;;;;18.40;99.90;;;;;;6244845;23;19919;-75
2022/08/16 04:24:38;;;;;;;;;;;18.40;99.90;;;;;;6219115;23;19992;-74
2022/08/16 04:27:04;;;;;;;;;;;18.40;99.90;;;;;;6192985;23;19920;-76
2022/08/16 04:29:29;;;;;;;;;;;18.40;99.90;;;;;;6244927;23;20334;-74
2022/08/16 04:31:55;;;;;;;;;;;18.40;99.90;;;;;;6245343;23;19920;-74
2022/08/16 04:34:21;;;;;;;;;;;18.40;99.90;;;;;;6219805;23;19920;-75
2022/08/16 04:36:47;;;;;;;;;;;18.40;99.90;;;;;;6244442;23;20331;-74
2022/08/16 04:39:12;;;;;;;;;;;18.50;99.90;;;;;;6244279;23;19920;-75
2022/08/16 04:41:38;;;;;;;;;;;18.60;99.90;;;;;;6244320;23;19943;-74
2022/08/16 04:44:04;;;;;;;;;;;18.60;99.90;;;;;;6245076;22;19942;-72
2022/08/16 04:46:30;;;;;;;;;;;18.60;99.90;;;;;;6244629;23;20361;-73
2022/08/16 04:48:55;;;;;;;;;;;18.70;99.90;;;;;;6246885;23;19919;-74
2022/08/16 04:51:21;;;;;;;;;;;18.70;99.90;;;;;;6246934;23;19966;-75
2022/08/16 04:53:47;;;;;;;;;;;18.70;99.90;;;;;;6221593;23;19930;-76
2022/08/16 04:56:12;;;;;;;;;;;18.70;99.90;;;;;;6221503;23;19920;-74
2022/08/16 04:58:38;;;;;;;;;;;18.80;99.90;;;;;;6197211;23;19955;-75
2022/08/16 05:01:04;;;;;;;;;;;18.80;99.90;;;;;;6248473;23;19919;-75
2022/08/16 05:03:29;;;;;;;;;;;18.80;99.90;;;;;;6221075;23;19930;-73
2022/08/16 05:05:55;;;;;;;;;;;18.80;99.90;;;;;;6248364;23;19919;-77
2022/08/16 05:08:21;;;;;;;;;;;18.80;99.90;;;;;;6221590;23;19926;-75
2022/08/16 05:10:47;;;;;;;;;;;18.80;99.90;;;;;;6221431;23;19930;-76
2022/08/16 05:13:13;;;;;;;;;;;18.80;99.90;;;;;;6196155;23;19962;-74
2022/08/16 05:15:39;;;;;;;;;;;18.90;99.90;;;;;;6221464;23;19919;-77
2022/08/16 05:18:04;;;;;;;;;;;18.90;99.90;;;;;;6196259;23;20349;-75
2022/08/16 05:20:32;;;;;;;;;;;19.00;99.90;;;;;;6246488;23;19927;-75
2022/08/16 05:22:58;;;;;;;;;;;19.00;99.90;;;;;;6246037;22;19990;-77
2022/08/16 05:25:24;;;;;;;;;;;19.10;99.90;;;;;;6221374;23;19920;-77
2022/08/16 05:27:50;;;;;;;;;;;19.20;99.90;;;;;;6246411;23;19969;-75
2022/08/16 05:30:16;;;;;;;;;;;19.30;99.90;;;;;;6248027;23;20254;-75
2022/08/16 05:32:42;;;;;;;;;;;19.30;99.90;;;;;;6246339;22;19920;-72
2022/08/16 05:35:09;;;;;;;;;;;19.50;99.90;;;;;;6249082;22;19923;-75
2022/08/16 05:37:35;;;;;;;;;;;19.70;99.90;;;;;;6221499;23;19919;-77
2022/08/16 05:40:01;;;;;;;;;;;19.80;99.90;;;;;;6221055;23;20289;-76
2022/08/16 05:42:26;;;;;;;;;;;19.80;99.90;;;;;;6220053;23;19919;-78
2022/08/16 05:44:52;;;;;;;;;;;19.80;99.90;;;;;;6245216;22;20366;-76
2022/08/16 05:47:17;;;;;;;;;;;19.80;99.90;;;;;;6245020;23;19927;-74
2022/08/16 05:49:43;;;;;;;;;;;19.90;99.90;;;;;;6245268;23;20242;-76
2022/08/16 05:52:09;;;;;;;;;;;20.00;99.90;;;;;;6245392;23;19970;-75
2022/08/16 05:54:35;;;;;;;;;;;20.10;99.90;;;;;;6245797;22;19926;-75
2022/08/16 05:57:00;;;;;;;;;;;20.20;99.90;;;;;;6246191;23;20242;-76
2022/08/16 05:59:26;;;;;;;;;;;20.40;99.90;;;;;;6246218;23;20020;-76
2022/08/16 06:01:52;;;;;;;;;;;20.50;99.90;;;;;;6221282;23;19920;-76
2022/08/16 06:04:18;;;;;;;;;;;20.70;99.90;;;;;;6220704;23;20334;-76
2022/08/16 06:06:44;;;;;;;;;;;20.80;99.90;;;;;;6220716;23;19927;-75
2022/08/16 06:09:38;;;;;;;;;;;21.00;99.90;;;;;;6246127;23;19930;-81
2022/08/16 06:12:21;;;;;;;;;;;21.10;99.90;;;;;;6173880;23;19930;-79
2022/08/16 06:15:01;;;;;;;;;;;21.30;99.90;;;;;;6221834;23;19920;-81
2022/08/16 06:17:42;;;;;;;;;;;21.50;99.90;;;;;;6222072;23;20290;-81
2022/08/16 06:20:23;;;;;;;;;;;21.60;99.90;;;;;;6220574;23;19920;-81
2022/08/16 06:22:49;;;;;;;;;;;21.80;99.90;;;;;;6245796;22;19973;-81
2022/08/16 06:25:15;;;;;;;;;;;21.90;99.90;;;;;;6220414;23;19919;-81
2022/08/16 06:27:44;;;;;;;;;;;22.00;99.90;;;;;;6220197;23;19926;-81
2022/08/16 06:30:10;;;;;;;;;;;22.20;99.90;;;;;;6245935;23;19923;-80
2022/08/16 06:32:38;;;;;;;;;;;22.20;99.90;;;;;;6220644;22;19927;-81
2022/08/16 06:35:07;;;;;;;;;;;22.40;99.90;;;;;;6245969;23;19924;-79
2022/08/16 06:37:32;;;;;;;;;;;22.40;99.90;;;;;;6220637;23;19919;-83
2022/08/16 06:40:00;;;;;;;;;;;22.60;99.90;;;;;;6219984;23;19919;-82
2022/08/16 06:42:26;;;;;;;;;;;22.70;99.90;;;;;;6219778;23;19920;-84
2022/08/16 06:44:58;;;;;;;;;;;22.80;99.90;;;;;;6221003;23;19969;-83
2022/08/16 06:47:32;;;;;;;;;;;23.00;99.90;;;;;;6219288;23;19945;-79
2022/08/16 06:50:07;;;;;;;;;;;23.20;99.90;;;;;;6244975;23;19919;-81
2022/08/16 06:52:48;;;;;;;;;;;23.30;99.90;;;;;;6218213;22;19919;-78
2022/08/16 06:55:19;;;;;;;;;;;23.20;99.90;;;;;;6221952;23;20358;-78
2022/08/16 06:57:49;;;;;;;;;;;23.10;99.90;;;;;;6226349;23;19951;-80
2022/08/16 07:00:29;;;;;;;;;;;23.00;99.90;;;;;;6246425;23;19920;-74
2022/08/16 07:03:15;;;;;;;;;;;23.20;99.90;;;;;;6245619;22;19919;-75
2022/08/16 07:09:30;;;;;;;;;;;23.60;99.90;;;;;;6245783;22;20007;-75
2022/08/16 07:11:56;;;;;;;;;;;23.70;99.90;;;;;;6212201;22;20254;-73
2022/08/16 07:14:21;;;;;;;;;;;23.80;99.90;;;;;;6245496;22;19950;-75
2022/08/16 07:16:47;;;;;;;;;;;23.80;99.90;;;;;;6220347;23;20296;-75
2022/08/16 07:19:15;;;;;;;;;;;23.90;99.90;;;;;;6220147;23;19994;-75
2022/08/16 07:21:41;;;;;;;;;;;24.00;99.90;;;;;;6245448;23;19919;-75
2022/08/16 07:24:07;;;;;;;;;;;24.20;99.90;;;;;;6220251;23;19946;-79
2022/08/16 07:26:33;;;;;;;;;;;24.40;99.90;;;;;;6245567;23;19942;-76
2022/08/16 07:28:59;;;;;;;;;;;24.40;99.90;;;;;;6245540;23;20322;-78
2022/08/16 07:31:25;;;;;;;;;;;24.50;99.90;;;;;;6245398;23;20006;-75
2022/08/16 07:33:50;;;;;;;;;;;24.40;99.90;;;;;;6245346;22;19924;-79
2022/08/16 07:36:16;;;;;;;;;;;24.20;99.90;;;;;;6220260;23;19942;-73
2022/08/16 07:38:42;;;;;;;;;;;24.00;99.90;;;;;;6244350;23;19926;-75
2022/08/16 07:41:08;;;;;;;;;;;23.80;99.90;;;;;;6243774;23;19928;-73
2022/08/16 07:43:34;;;;;;;;;;;23.60;99.90;;;;;;6244023;22;19920;-76
2022/08/16 07:45:59;;;;;;;;;;;23.50;99.90;;;;;;6243987;23;20296;-75
2022/08/16 07:48:25;;;;;;;;;;;23.50;99.90;;;;;;6218164;23;19924;-76
2022/08/16 07:50:51;;;;;;;;;;;23.60;99.90;;;;;;6217879;23;19919;-72
2022/08/16 07:53:17;;;;;;;;;;;23.80;99.90;;;;;;6244598;22;19980;-78
2022/08/16 07:55:43;;;;;;;;;;;24.10;99.90;;;;;;6243995;23;20015;-73
2022/08/16 07:58:08;;;;;;;;;;;24.50;99.90;;;;;;6243770;23;20234;-70
2022/08/16 08:00:35;;;;;;;;;;;24.70;99.90;;;;;;6218196;23;19927;-77
2022/08/16 08:03:03;;;;;;;;;;;24.70;99.90;;;;;;6243836;22;19969;-75
2022/08/16 08:05:29;;;;;;;;;;;24.70;99.90;;;;;;6218195;23;19920;-75
2022/08/16 08:07:55;;;;;;;;;;;24.60;99.90;;;;;;6243618;23;20330;-76
2022/08/16 08:10:21;;;;;;;;;;;24.50;99.90;;;;;;6243246;23;20269;-75
2022/08/16 08:12:48;;;;;;;;;;;24.20;99.90;;;;;;6243535;22;20342;-76
2022/08/16 08:15:14;;;;;;;;;;;24.00;99.90;;;;;;6243974;23;19955;-78
2022/08/16 08:17:40;;;;;;;;;;;24.10;99.90;;;;;;6243534;23;19978;-74
2022/08/16 08:20:07;;;;;;;;;;;24.30;99.90;;;;;;6243197;23;19919;-75
2022/08/16 08:22:32;;;;;;;;;;;24.50;99.90;;;;;;6218697;23;20017;-77
2022/08/16 08:25:05;;;;;;;;;;;24.80;99.90;;;;;;6194229;23;19920;-80
2022/08/16 08:31:03;;;;;;;;;;;25.30;99.90;;;;;;6184916;23;19926;-77
2022/08/16 08:33:42;;;;;;;;;;;25.40;99.90;;;;;;6220180;23;19920;-76
2022/08/16 08:36:47;;;;;;;;;;;25.40;99.90;;;;;;6246291;23;20292;-78
2022/08/16 08:39:38;;;;;;;;;;;25.40;99.90;;;;;;6219762;23;19969;-76
2022/08/16 08:42:45;;;;;;;;;;;25.70;99.90;;;;;;6205344;23;20351;-75
2022/08/16 08:45:36;;;;;;;;;;;25.90;99.90;;;;;;6220262;23;19962;-76
2022/08/16 08:48:33;;;;;;;;;;;;;;;;;;;;;
2022/08/16 08:51:39;;;;;;;;;;;25.80;99.90;;;;;;6248263;23;19915;-76
2022/08/16 08:54:08;;;;;;;;;;;26.00;99.90;;;;;;6217523;23;20344;-77
2022/08/16 09:00:11;;;;;;;;;;;26.30;99.90;;;;;;6235281;22;19942;-76
2022/08/16 09:02:46;;;;;;;;;;;26.40;99.90;;;;;;6196266;23;19943;-75
2022/08/16 09:05:25;;;;;;;;;;;26.60;99.90;;;;;;6222796;23;19927;-77
2022/08/16 09:07:50;;;;;;;;;;;26.70;99.90;;;;;;6246776;23;20220;-77
2022/08/16 09:10:25;;;;;;;;;;;27.00;99.90;;;;;;6195728;23;19966;-76
2022/08/16 09:13:17;;;;;;;;;;;27.00;99.90;;;;;;6179944;22;19919;-77
2022/08/16 09:16:06;;;;;;;;;;;27.00;99.90;;;;;;6220839;23;19926;-75
2022/08/16 09:19:00;;;;;;;;;;;;;;;;;;;;;
2022/08/16 09:21:54;;;;;;;;;;;27.10;99.90;;;;;;6243288;22;20302;-76
2022/08/16 09:25:08;;;;;;;;;;;;;;;;;;;;;
2022/08/16 09:27:41;;;;;;;;;;;27.20;99.90;;;;;;6245987;23;19969;-76
2022/08/16 09:30:42;;;;;;;;;;;27.20;99.90;;;;;;6246848;23;19943;-76
2022/08/16 09:33:26;;;;;;;;;;;27.40;99.90;;;;;;6246542;22;20385;-76
2022/08/16 09:36:15;;;;;;;;;;;27.40;99.90;;;;;;6245912;23;19921;-78
2022/08/16 09:42:03;;;;;;;;;;;27.40;99.90;;;;;;6242674;23;19959;-76
2022/08/16 09:44:50;;;;;;;;;;;27.30;99.90;;;;;;6199717;23;20281;-77
2022/08/16 09:47:33;;;;;;;;;;;;;;;;;;;;;
2022/08/16 09:50:38;;;;;;;;;;;27.20;99.90;;;;;;6215845;22;19958;-76
2022/08/16 09:53:07;;;;;;;;;;;27.50;99.90;;;;;;6221015;22;19924;-78
2022/08/16 09:55:33;;;;;;;;;;;27.60;99.90;;;;;;6195983;23;19966;-74
2022/08/16 09:57:58;;;;;;;;;;;27.50;99.90;;;;;;6220961;23;19924;-77
2022/08/16 10:04:11;;;;;;;;;;;27.90;99.90;;;;;;6193122;22;20329;-78
2022/08/16 10:06:46;;;;;;;;;;;27.80;99.90;;;;;;6202847;23;19990;-78
2022/08/16 10:09:31;;;;;;;;;;;27.80;99.90;;;;;;6225221;23;19925;-79
2022/08/16 10:14:48;;;;;;;;;;;27.90;99.90;;;;;;6220237;23;20245;-79
2022/08/16 10:17:13;;;;;;;;;;;28.10;99.90;;;;;;6220495;23;19949;-80
2022/08/16 10:19:41;;;;;;;;;;;28.30;99.90;;;;;;6195422;23;20323;-78
2022/08/16 10:22:07;;;;;;;;;;;28.30;99.90;;;;;;6220672;23;19920;-77
2022/08/16 10:24:35;;;;;;;;;;;28.30;99.90;;;;;;6195377;23;19920;-80
2022/08/16 10:27:07;;;;;;;;;;;28.30;99.90;;;;;;6194618;23;19916;-81
2022/08/16 10:29:33;;;;;;;;;;;28.30;99.90;;;;;;6220877;23;19947;-76
2022/08/16 10:31:59;;;;;;;;;;;28.50;99.90;;;;;;6220262;23;19967;-75
2022/08/16 10:34:31;;;;;;;;;;;28.40;99.90;;;;;;6220048;23;19916;-74
2022/08/16 10:36:57;;;;;;;;;;;28.50;99.90;;;;;;6220281;23;19916;-80
2022/08/16 10:39:25;;;;;;;;;;;28.40;99.90;;;;;;6220488;23;19926;-79
2022/08/16 10:41:51;;;;;;;;;;;28.40;99.90;;;;;;6195524;23;19915;-76
2022/08/16 10:44:22;;;;;;;;;;;28.30;99.90;;;;;;6171512;23;19919;-77
2022/08/16 10:46:51;;;;;;;;;;;28.40;99.90;;;;;;6196127;23;20345;-77
2022/08/16 10:49:16;;;;;;;;;;;28.50;99.90;;;;;;6195081;23;19951;-81
2022/08/16 10:51:42;;;;;;;;;;;28.60;99.90;;;;;;6196039;23;19927;-81
2022/08/16 10:54:08;;;;;;;;;;;28.50;99.90;;;;;;6196681;23;20302;-78
2022/08/16 10:56:34;;;;;;;;;;;28.60;99.90;;;;;;6221149;23;19990;-80
2022/08/16 10:59:00;;;;;;;;;;;28.60;99.90;;;;;;6196911;23;19965;-78
2022/08/16 11:01:28;;;;;;;;;;;28.60;99.90;;;;;;6196016;23;19994;-80
2022/08/16 11:04:01;;;;;;;;;;;28.60;99.90;;;;;;6221404;23;20234;-78
2022/08/16 11:06:27;;;;;;;;;;;28.60;99.90;;;;;;6220712;23;19926;-78
2022/08/16 11:08:57;;;;;;;;;;;28.70;99.90;;;;;;6194908;23;19916;-79
2022/08/16 11:11:23;;;;;;;;;;;28.70;99.90;;;;;;6192860;23;19923;-77
2022/08/16 11:13:51;;;;;;;;;;;28.80;99.90;;;;;;6193919;23;19916;-76
2022/08/16 11:16:17;;;;;;;;;;;28.80;99.90;;;;;;6193857;23;20002;-76
2022/08/16 11:18:46;;;;;;;;;;;28.70;99.90;;;;;;6220302;23;19990;-77
2022/08/16 11:21:13;;;;;;;;;;;28.90;99.90;;;;;;6220988;23;19927;-73
2022/08/16 11:23:38;;;;;;;;;;;28.90;99.90;;;;;;6220859;23;19919;-74
2022/08/16 11:26:10;;;;;;;;;;;29.00;99.90;;;;;;6219807;23;20327;-78
2022/08/16 11:28:35;;;;;;;;;;;29.10;99.90;;;;;;6220143;23;19969;-78
2022/08/16 11:31:53;;;;;;;;;;;;;;;;;;;;;
2022/08/16 11:38:16;;;;;;;;;;;29.00;99.30;;;;;;6193283;23;19922;-77
2022/08/16 11:40:45;;;;;;;;;;;29.00;99.10;;;;;;6219487;23;19916;-79
2022/08/16 11:43:18;;;;;;;;;;;29.10;98.90;;;;;;6219567;22;19923;-78
2022/08/16 11:45:44;;;;;;;;;;;28.90;98.40;;;;;;6219444;23;19916;-79
2022/08/16 11:48:17;;;;;;;;;;;28.90;98.00;;;;;;6194389;23;20219;-80
2022/08/16 11:50:49;;;;;;;;;;;28.70;96.50;;;;;;6194178;23;21300;-74
2022/08/16 11:53:15;;;;;;;;;;;28.70;97.50;;;;;;6218611;22;19919;-81
2022/08/16 11:55:41;;;;;;;;;;;28.70;97.60;;;;;;6194277;23;19958;-76
2022/08/16 11:58:07;;;;;;;;;;;28.70;97.10;;;;;;6219379;23;19924;-77
2022/08/16 12:00:34;;;;;;;;;;;28.50;96.20;;;;;;6195252;23;19920;-75
2022/08/16 12:03:00;;;;;;;;;;;28.50;97.10;;;;;;6220953;23;20326;-76
2022/08/16 12:05:26;;;;;;;;;;;28.60;97.50;;;;;;6220728;23;19919;-78
2022/08/16 12:08:00;;;;;;;;;;;28.70;96.80;;;;;;6195722;23;20262;-79
2022/08/16 12:10:29;;;;;;;;;;;28.90;96.80;;;;;;6196240;23;20388;-75
2022/08/16 12:12:55;;;;;;;;;;;28.80;96.50;;;;;;6195487;23;20326;-75
2022/08/16 12:15:23;;;;;;;;;;;28.70;96.00;;;;;;6195078;23;19919;-77
2022/08/16 12:17:49;;;;;;;;;;;28.70;95.60;;;;;;6220831;23;19915;-80
2022/08/16 12:20:16;;;;;;;;;;;28.70;95.80;;;;;;6195467;23;20011;-76
2022/08/16 12:22:42;;;;;;;;;;;28.70;95.60;;;;;;6195248;23;19927;-79
2022/08/16 12:25:10;;;;;;;;;;;28.70;94.90;;;;;;6195962;23;19916;-79
2022/08/16 12:27:39;;;;;;;;;;;28.70;95.90;;;;;;6247365;23;20342;-77
2022/08/16 12:30:06;;;;;;;;;;;28.70;96.40;;;;;;6220069;23;19919;-79
2022/08/16 12:32:31;;;;;;;;;;;28.60;96.10;;;;;;6195867;23;19935;-79
2022/08/16 12:38:30;;;;;;;;;;;28.50;95.30;;;;;;6155535;23;19914;-75
2022/08/16 12:40:57;;;;;;;;;;;28.40;95.50;;;;;;6220152;23;19947;-78
2022/08/16 12:43:23;;;;;;;;;;;28.30;95.60;;;;;;6195802;22;20354;-76
2022/08/16 12:45:50;;;;;;;;;;;28.30;95.80;;;;;;6220437;23;19966;-78
2022/08/16 12:51:06;;;;;;;;;;;28.40;96.00;;;;;;6220257;23;19986;-78
2022/08/16 12:53:33;;;;;;;;;;;28.20;95.40;;;;;;6195489;22;19931;-76
2022/08/16 12:55:59;;;;;;;;;;;28.20;94.90;;;;;;6195185;23;20338;-76
2022/08/16 12:58:26;;;;;;;;;;;28.00;95.30;;;;;;6220076;23;19962;-78
2022/08/16 13:00:51;;;;;;;;;;;27.90;95.80;;;;;;6195295;23;19915;-80
2022/08/16 13:03:19;;;;;;;;;;;27.80;95.80;;;;;;6195413;22;19998;-81
2022/08/16 13:05:47;;;;;;;;;;;27.70;96.20;;;;;;6195712;23;20382;-80
2022/08/16 13:08:14;;;;;;;;;;;27.70;96.30;;;;;;6249023;23;19916;-80
2022/08/16 13:10:41;;;;;;;;;;;27.80;96.70;;;;;;6196973;23;19916;-77
2022/08/16 13:13:23;;;;;;;;;;;27.80;97.00;;;;;;6197460;23;20026;-79
2022/08/16 13:15:50;;;;;;;;;;;28.00;97.60;;;;;;6220180;23;19915;-82
2022/08/16 13:18:20;;;;;;;;;;;28.00;97.70;;;;;;6219978;23;19997;-77
2022/08/16 13:20:45;;;;;;;;;;;28.00;98.10;;;;;;6194405;23;19996;-76
2022/08/16 13:23:28;;;;;;;;;;;;;;;;;;;;;
2022/08/16 13:29:42;;;;;;;;;;;28.40;98.00;;;;;;6128721;23;19932;-74
2022/08/16 13:32:09;;;;;;;;;;;28.80;97.20;;;;;;6128949;23;19960;-74
2022/08/16 13:34:35;;;;;;;;;;;28.70;95.70;;;;;;6196513;23;19921;-75
2022/08/16 13:37:12;;;;;;;;;;;28.70;94.70;;;;;;6219960;23;19916;-74
2022/08/16 13:43:40;;;;;;;;;;;28.90;93.90;;;;;;6207109;22;19951;-78
2022/08/16 13:49:48;;;;;;;;;;;28.80;92.60;;;;;;6095305;23;20289;-77
2022/08/16 13:52:13;;;;;;;;;;;28.70;92.20;;;;;;6095647;23;19919;-75
2022/08/16 13:54:39;;;;;;;;;;;28.50;92.00;;;;;;6170999;23;19916;-76
2022/08/16 13:57:08;;;;;;;;;;;28.40;91.80;;;;;;6222039;23;20251;-77
2022/08/16 13:59:33;;;;;;;;;;;28.40;93.10;;;;;;6197329;23;19926;-75
2022/08/16 14:02:00;;;;;;;;;;;28.40;93.50;;;;;;6222228;23;19919;-72
2022/08/16 14:04:30;;;;;;;;;;;28.40;94.00;;;;;;6196491;23;20392;-77
2022/08/16 14:07:19;;;;;;;;;;;28.60;94.10;;;;;;6196885;23;20348;-78
2022/08/16 14:09:52;;;;;;;;;;;28.60;94.40;;;;;;6220691;23;19966;-77
2022/08/16 14:12:25;;;;;;;;;;;28.70;94.70;;;;;;6220844;23;19920;-78
2022/08/16 14:14:56;;;;;;;;;;;28.70;94.80;;;;;;6195746;23;19998;-77
2022/08/16 14:17:30;;;;;;;;;;;28.50;94.70;;;;;;6194717;23;19919;-78
2022/08/16 14:20:01;;;;;;;;;;;28.50;94.40;;;;;;6184288;23;20259;-77
2022/08/16 14:22:43;;;;;;;;;;;28.30;94.30;;;;;;6150509;23;19963;-78
2022/08/16 14:25:21;;;;;;;;;;;28.30;94.60;;;;;;6134539;23;19924;-78
2022/08/16 14:27:55;;;;;;;;;;;28.30;94.70;;;;;;6158970;23;19920;-78
2022/08/16 14:30:25;;;;;;;;;;;28.20;94.50;;;;;;6159119;23;19920;-77
2022/08/16 14:32:58;;;;;;;;;;;28.10;94.40;;;;;;6157534;23;20021;-77
2022/08/16 14:35:36;;;;;;;;;;;28.00;94.50;;;;;;6159084;23;19920;-80
2022/08/16 14:38:10;;;;;;;;;;;28.00;94.70;;;;;;6159132;23;19927;-80
2022/08/16 14:40:43;;;;;;;;;;;27.90;95.20;;;;;;6159518;23;19935;-78
2022/08/16 14:43:23;;;;;;;;;;;27.80;95.00;;;;;;6165854;23;19943;-79
2022/08/16 14:45:55;;;;;;;;;;;27.60;95.60;;;;;;6163456;23;19920;-79
2022/08/16 14:48:23;;;;;;;;;;;27.50;96.10;;;;;;6159711;23;19921;-79
2022/08/16 14:50:58;;;;;;;;;;;27.50;96.40;;;;;;6116960;23;20001;-79
2022/08/16 14:53:25;;;;;;;;;;;27.50;96.70;;;;;;6129397;23;20395;-77
2022/08/16 14:56:01;;;;;;;;;;;27.50;96.30;;;;;;6106851;23;19942;-79
2022/08/16 14:58:27;;;;;;;;;;;27.40;96.60;;;;;;6130120;23;20018;-80
2022/08/16 15:01:06;;;;;;;;;;;27.20;96.90;;;;;;6128769;23;19959;-81
2022/08/16 15:03:31;;;;;;;;;;;27.30;97.10;;;;;;6129527;23;19921;-79
2022/08/16 15:05:59;;;;;;;;;;;27.20;96.90;;;;;;6129521;23;19931;-80
2022/08/16 15:08:25;;;;;;;;;;;27.20;97.40;;;;;;6153983;23;19952;-81
2022/08/16 15:10:53;;;;;;;;;;;27.10;97.60;;;;;;6104995;23;20263;-79
2022/08/16 15:13:20;;;;;;;;;;;27.10;97.90;;;;;;6104991;23;19921;-81
2022/08/16 15:15:50;;;;;;;;;;;27.10;98.40;;;;;;6104652;23;20344;-78
2022/08/16 15:18:26;;;;;;;;;;;27.20;98.70;;;;;;6105271;23;19988;-78